sensor_id;sensor_type;location;lat;lon;timestamp;pressure;altitude;pressure_sealevel;temperature;humidity
50093;BME280;35974;47.752;10.290;2024-01-30T00:01:23;95117.00;;;-2.69;100.00
50093;BME280;35974;47.752;10.290;2024-01-30T00:03:49;95145.19;;;-2.54;100.00
50093;BME280;35974;47.752;10.290;2024-01-30T00:06:20;95132.38;;;-2.69;100.00
50093;BME280;35974;47.752;10.290;2024-01-30T00:08:50;95151.41;;;-2.59;100.00
50093;BME280;35974;47.752;10.290;2024-01-30T00:11:16;95136.78;;;-2.71;100.00
50093;BME280;35974;47.752;10.290;2024-01-30T00:13:43;95147.41;;;-2.63;100.00
50093;BME280;35974;47.752;10.290;2024-01-30T00:16:20;95139.00;;;-2.65;100.00
50093;BME280;35974;47.752;10.290;2024-01-30T00:18:46;95154.63;;;-2.55;100.00
50093;BME280;35974;47.752;10.290;2024-01-30T00:21:13;95152.34;;;-2.60;100.00
50093;BME280;35974;47.752;10.290;2024-01-30T00:23:39;95139.53;;;-2.74;100.00
50093;BME280;35974;47.752;10.290;2024-01-30T00:26:06;95127.81;;;-2.78;100.00
50093;BME280;35974;47.752;10.290;2024-01-30T00:28:32;95141.16;;;-2.73;100.00
50093;BME280;35974;47.752;10.290;2024-01-30T00:30:59;95112.34;;;-2.91;100.00
50093;BME280;35974;47.752;10.290;2024-01-30T00:33:25;95151.06;;;-2.67;100.00
50093;BME280;35974;47.752;10.290;2024-01-30T00:35:52;95171.19;;;-2.61;100.00
50093;BME280;35974;47.752;10.290;2024-01-30T00:38:20;95134.94;;;-2.83;100.00
50093;BME280;35974;47.752;10.290;2024-01-30T00:40:47;95137.34;;;-2.80;100.00
50093;BME280;35974;47.752;10.290;2024-01-30T00:43:13;95164.41;;;-2.62;100.00
50093;BME280;35974;47.752;10.290;2024-01-30T00:45:40;95154.38;;;-2.65;100.00
50093;BME280;35974;47.752;10.290;2024-01-30T00:48:06;95131.31;;;-2.79;100.00
50093;BME280;35974;47.752;10.290;2024-01-30T00:50:33;95130.19;;;-2.75;100.00
50093;BME280;35974;47.752;10.290;2024-01-30T00:53:00;95167.16;;;-2.50;100.00
50093;BME280;35974;47.752;10.290;2024-01-30T00:55:26;95162.78;;;-2.48;100.00
50093;BME280;35974;47.752;10.290;2024-01-30T00:57:53;95162.41;;;-2.56;100.00
50093;BME280;35974;47.752;10.290;2024-01-30T01:00:19;95139.25;;;-2.69;100.00
50093;BME280;35974;47.752;10.290;2024-01-30T01:02:47;95168.44;;;-2.58;100.00
50093;BME280;35974;47.752;10.290;2024-01-30T01:05:13;95169.34;;;-2.59;100.00
50093;BME280;35974;47.752;10.290;2024-01-30T01:07:40;95186.22;;;-2.54;100.00
50093;BME280;35974;47.752;10.290;2024-01-30T01:10:09;95157.09;;;-2.82;100.00
50093;BME280;35974;47.752;10.290;2024-01-30T01:12:37;95147.50;;;-2.79;100.00
50093;BME280;35974;47.752;10.290;2024-01-30T01:15:04;95154.09;;;-2.74;100.00
50093;BME280;35974;47.752;10.290;2024-01-30T01:17:31;95167.53;;;-2.71;100.00
50093;BME280;35974;47.752;10.290;2024-01-30T01:19:57;95174.97;;;-2.66;100.00
50093;BME280;35974;47.752;10.290;2024-01-30T01:22:25;95164.44;;;-2.76;100.00
50093;BME280;35974;47.752;10.290;2024-01-30T01:24:51;95152.16;;;-2.85;100.00
50093;BME280;35974;47.752;10.290;2024-01-30T01:27:18;95168.63;;;-2.75;100.00
50093;BME280;35974;47.752;10.290;2024-01-30T01:29:44;95152.34;;;-2.88;100.00
50093;BME280;35974;47.752;10.290;2024-01-30T01:32:11;95162.03;;;-2.79;100.00
50093;BME280;35974;47.752;10.290;2024-01-30T01:34:38;95155.78;;;-2.89;100.00
50093;BME280;35974;47.752;10.290;2024-01-30T01:37:05;95157.00;;;-2.95;100.00
50093;BME280;35974;47.752;10.290;2024-01-30T01:39:34;95190.50;;;-2.69;100.00
50093;BME280;35974;47.752;10.290;2024-01-30T01:42:00;95182.38;;;-2.76;100.00
50093;BME280;35974;47.752;10.290;2024-01-30T01:44:27;95164.78;;;-2.97;100.00
50093;BME280;35974;47.752;10.290;2024-01-30T01:46:54;95151.75;;;-3.08;100.00
50093;BME280;35974;47.752;10.290;2024-01-30T01:49:23;95173.19;;;-2.95;100.00
50093;BME280;35974;47.752;10.290;2024-01-30T01:51:51;95171.34;;;-2.92;100.00
50093;BME280;35974;47.752;10.290;2024-01-30T01:54:20;95137.94;;;-3.20;100.00
50093;BME280;35974;47.752;10.290;2024-01-30T01:56:47;95155.41;;;-3.12;100.00
50093;BME280;35974;47.752;10.290;2024-01-30T01:59:14;95157.78;;;-3.09;100.00
50093;BME280;35974;47.752;10.290;2024-01-30T02:01:41;95173.72;;;-3.04;100.00
50093;BME280;35974;47.752;10.290;2024-01-30T02:04:08;95158.72;;;-3.10;100.00
50093;BME280;35974;47.752;10.290;2024-01-30T02:06:35;95149.00;;;-3.19;100.00
50093;BME280;35974;47.752;10.290;2024-01-30T02:09:01;95147.00;;;-3.14;100.00
50093;BME280;35974;47.752;10.290;2024-01-30T02:11:28;95148.66;;;-3.13;100.00
50093;BME280;35974;47.752;10.290;2024-01-30T02:13:55;95170.06;;;-3.00;100.00
50093;BME280;35974;47.752;10.290;2024-01-30T02:16:21;95168.59;;;-3.04;100.00
50093;BME280;35974;47.752;10.290;2024-01-30T02:18:48;95139.09;;;-3.25;100.00
50093;BME280;35974;47.752;10.290;2024-01-30T02:21:18;95165.13;;;-3.03;100.00
50093;BME280;35974;47.752;10.290;2024-01-30T02:23:46;95159.63;;;-3.11;100.00
50093;BME280;35974;47.752;10.290;2024-01-30T02:26:13;95171.91;;;-3.02;100.00
50093;BME280;35974;47.752;10.290;2024-01-30T02:28:39;95155.97;;;-3.21;100.00
50093;BME280;35974;47.752;10.290;2024-01-30T02:31:06;95161.63;;;-3.16;100.00
50093;BME280;35974;47.752;10.290;2024-01-30T02:33:32;95151.28;;;-3.15;100.00
50093;BME280;35974;47.752;10.290;2024-01-30T02:35:59;95125.47;;;-3.40;100.00
50093;BME280;35974;47.752;10.290;2024-01-30T02:38:26;95158.44;;;-3.20;100.00
50093;BME280;35974;47.752;10.290;2024-01-30T02:40:53;95126.28;;;-3.40;100.00
50093;BME280;35974;47.752;10.290;2024-01-30T02:43:19;95130.69;;;-3.27;100.00
50093;BME280;35974;47.752;10.290;2024-01-30T02:45:46;95139.84;;;-3.23;100.00
50093;BME280;35974;47.752;10.290;2024-01-30T02:48:13;95144.22;;;-3.25;100.00
50093;BME280;35974;47.752;10.290;2024-01-30T02:50:39;95156.84;;;-3.22;100.00
50093;BME280;35974;47.752;10.290;2024-01-30T02:53:06;95129.78;;;-3.41;100.00
50093;BME280;35974;47.752;10.290;2024-01-30T02:55:33;95151.34;;;-3.31;100.00
50093;BME280;35974;47.752;10.290;2024-01-30T02:57:59;95128.28;;;-3.45;100.00
50093;BME280;35974;47.752;10.290;2024-01-30T03:00:26;95144.78;;;-3.35;100.00
50093;BME280;35974;47.752;10.290;2024-01-30T03:02:52;95144.41;;;-3.28;100.00
50093;BME280;35974;47.752;10.290;2024-01-30T03:05:19;95148.63;;;-3.27;100.00
50093;BME280;35974;47.752;10.290;2024-01-30T03:07:45;95158.59;;;-3.23;100.00
50093;BME280;35974;47.752;10.290;2024-01-30T03:10:12;95147.72;;;-3.26;100.00
50093;BME280;35974;47.752;10.290;2024-01-30T03:12:39;95164.00;;;-3.13;100.00
50093;BME280;35974;47.752;10.290;2024-01-30T03:15:05;95120.63;;;-3.31;100.00
50093;BME280;35974;47.752;10.290;2024-01-30T03:17:32;95157.06;;;-3.11;100.00
50093;BME280;35974;47.752;10.290;2024-01-30T03:19:58;95135.34;;;-3.34;100.00
50093;BME280;35974;47.752;10.290;2024-01-30T03:22:38;95146.06;;;-3.27;100.00
50093;BME280;35974;47.752;10.290;2024-01-30T03:25:04;95137.56;;;-3.28;100.00
50093;BME280;35974;47.752;10.290;2024-01-30T03:27:32;95123.88;;;-3.43;100.00
50093;BME280;35974;47.752;10.290;2024-01-30T03:29:59;95140.78;;;-3.24;100.00
50093;BME280;35974;47.752;10.290;2024-01-30T03:32:25;95131.22;;;-3.37;100.00
50093;BME280;35974;47.752;10.290;2024-01-30T03:34:52;95136.16;;;-3.34;100.00
50093;BME280;35974;47.752;10.290;2024-01-30T03:37:18;95121.16;;;-3.40;100.00
50093;BME280;35974;47.752;10.290;2024-01-30T03:39:45;95152.84;;;-3.26;100.00
50093;BME280;35974;47.752;10.290;2024-01-30T03:42:11;95134.53;;;-3.35;100.00
50093;BME280;35974;47.752;10.290;2024-01-30T03:44:38;95111.47;;;-3.49;100.00
50093;BME280;35974;47.752;10.290;2024-01-30T03:47:04;95112.75;;;-3.42;100.00
50093;BME280;35974;47.752;10.290;2024-01-30T03:49:31;95144.06;;;-3.22;100.00
50093;BME280;35974;47.752;10.290;2024-01-30T03:51:57;95143.88;;;-3.19;100.00
50093;BME280;35974;47.752;10.290;2024-01-30T03:54:24;95113.47;;;-3.40;100.00
50093;BME280;35974;47.752;10.290;2024-01-30T03:56:50;95134.16;;;-3.28;100.00
50093;BME280;35974;47.752;10.290;2024-01-30T03:59:18;95131.41;;;-3.40;100.00
50093;BME280;35974;47.752;10.290;2024-01-30T04:01:50;95124.31;;;-3.35;100.00
50093;BME280;35974;47.752;10.290;2024-01-30T04:04:18;95107.97;;;-3.48;100.00
50093;BME280;35974;47.752;10.290;2024-01-30T04:06:45;95139.66;;;-3.35;100.00
50093;BME280;35974;47.752;10.290;2024-01-30T04:09:12;95136.63;;;-3.27;100.00
50093;BME280;35974;47.752;10.290;2024-01-30T04:11:39;95144.56;;;-3.32;100.00
50093;BME280;35974;47.752;10.290;2024-01-30T04:14:06;95125.75;;;-3.31;100.00
50093;BME280;35974;47.752;10.290;2024-01-30T04:16:32;95125.16;;;-3.05;100.00
50093;BME280;35974;47.752;10.290;2024-01-30T04:18:59;95132.38;;;-3.26;100.00
50093;BME280;35974;47.752;10.290;2024-01-30T04:21:26;95123.75;;;-3.25;100.00
50093;BME280;35974;47.752;10.290;2024-01-30T04:23:53;95129.03;;;-3.28;100.00
50093;BME280;35974;47.752;10.290;2024-01-30T04:26:20;95147.34;;;-3.20;100.00
50093;BME280;35974;47.752;10.290;2024-01-30T04:28:46;95120.44;;;-3.42;100.00
50093;BME280;35974;47.752;10.290;2024-01-30T04:31:12;95105.41;;;-3.48;100.00
50093;BME280;35974;47.752;10.290;2024-01-30T04:33:39;95127.94;;;-3.39;100.00
50093;BME280;35974;47.752;10.290;2024-01-30T04:36:08;95149.19;;;-3.22;100.00
50093;BME280;35974;47.752;10.290;2024-01-30T04:38:37;95140.78;;;-3.24;100.00
50093;BME280;35974;47.752;10.290;2024-01-30T04:41:04;95116.03;;;-3.40;100.00
50093;BME280;35974;47.752;10.290;2024-01-30T04:43:31;95128.91;;;-3.41;100.00
50093;BME280;35974;47.752;10.290;2024-01-30T04:45:57;95115.09;;;-3.53;100.00
50093;BME280;35974;47.752;10.290;2024-01-30T04:48:24;95115.69;;;-3.34;100.00
50093;BME280;35974;47.752;10.290;2024-01-30T04:50:50;95131.41;;;-3.40;100.00
50093;BME280;35974;47.752;10.290;2024-01-30T04:53:17;95133.22;;;-3.42;100.00
50093;BME280;35974;47.752;10.290;2024-01-30T04:55:43;95145.13;;;-3.41;100.00
50093;BME280;35974;47.752;10.290;2024-01-30T04:58:10;95127.97;;;-3.55;100.00
50093;BME280;35974;47.752;10.290;2024-01-30T05:00:37;95143.28;;;-3.39;100.00
50093;BME280;35974;47.752;10.290;2024-01-30T05:03:03;95140.34;;;-3.47;100.00
50093;BME280;35974;47.752;10.290;2024-01-30T05:05:30;95143.34;;;-3.55;100.00
50093;BME280;35974;47.752;10.290;2024-01-30T05:07:56;95152.59;;;-3.52;100.00
50093;BME280;35974;47.752;10.290;2024-01-30T05:10:23;95111.56;;;-3.81;100.00
50093;BME280;35974;47.752;10.290;2024-01-30T05:12:49;95155.88;;;-3.50;100.00
50093;BME280;35974;47.752;10.290;2024-01-30T05:15:16;95130.97;;;-3.62;100.00
50093;BME280;35974;47.752;10.290;2024-01-30T05:17:42;95142.69;;;-3.58;100.00
50093;BME280;35974;47.752;10.290;2024-01-30T05:20:10;95147.81;;;-3.58;100.00
50093;BME280;35974;47.752;10.290;2024-01-30T05:22:37;95141.03;;;-3.59;100.00
50093;BME280;35974;47.752;10.290;2024-01-30T05:25:04;95144.50;;;-3.60;100.00
50093;BME280;35974;47.752;10.290;2024-01-30T05:27:32;95162.66;;;-3.49;100.00
50093;BME280;35974;47.752;10.290;2024-01-30T05:29:59;95139.03;;;-3.54;100.00
50093;BME280;35974;47.752;10.290;2024-01-30T05:32:25;95148.94;;;-3.48;100.00
50093;BME280;35974;47.752;10.290;2024-01-30T05:34:52;95164.09;;;-3.45;100.00
50093;BME280;35974;47.752;10.290;2024-01-30T05:37:18;95120.72;;;-3.62;100.00
50093;BME280;35974;47.752;10.290;2024-01-30T05:39:45;95164.09;;;-3.45;100.00
50093;BME280;35974;47.752;10.290;2024-01-30T05:42:11;95167.78;;;-3.49;100.00
50093;BME280;35974;47.752;10.290;2024-01-30T05:44:38;95151.09;;;-3.56;100.00
50093;BME280;35974;47.752;10.290;2024-01-30T05:47:04;95134.78;;;-3.70;100.00
50093;BME280;35974;47.752;10.290;2024-01-30T05:49:32;95144.69;;;-3.63;100.00
50093;BME280;35974;47.752;10.290;2024-01-30T05:51:58;95152.28;;;-3.62;100.00
50093;BME280;35974;47.752;10.290;2024-01-30T05:54:26;95154.50;;;-3.56;100.00
50093;BME280;35974;47.752;10.290;2024-01-30T05:56:54;95147.41;;;-3.66;100.00
50093;BME280;35974;47.752;10.290;2024-01-30T05:59:22;95149.97;;;-3.66;100.00
50093;BME280;35974;47.752;10.290;2024-01-30T06:01:49;95170.91;;;-3.60;100.00
50093;BME280;35974;47.752;10.290;2024-01-30T06:04:16;95162.84;;;-3.68;100.00
50093;BME280;35974;47.752;10.290;2024-01-30T06:06:50;95153.59;;;-3.71;100.00
50093;BME280;35974;47.752;10.290;2024-01-30T06:09:26;95160.38;;;-3.70;100.00
50093;BME280;35974;47.752;10.290;2024-01-30T06:11:54;95149.31;;;-3.70;100.00
50093;BME280;35974;47.752;10.290;2024-01-30T06:14:21;95160.38;;;-3.70;100.00
50093;BME280;35974;47.752;10.290;2024-01-30T06:16:47;95175.38;;;-3.63;100.00
50093;BME280;35974;47.752;10.290;2024-01-30T06:19:14;95156.44;;;-3.75;100.00
50093;BME280;35974;47.752;10.290;2024-01-30T06:21:41;95156.38;;;-3.59;100.00
50093;BME280;35974;47.752;10.290;2024-01-30T06:24:07;95169.41;;;-3.48;100.00
50093;BME280;35974;47.752;10.290;2024-01-30T06:26:34;95135.13;;;-3.76;100.00
50093;BME280;35974;47.752;10.290;2024-01-30T06:29:01;95153.59;;;-3.71;100.00
50093;BME280;35974;47.752;10.290;2024-01-30T06:31:27;95147.19;;;-3.78;100.00
50093;BME280;35974;47.752;10.290;2024-01-30T06:33:54;95144.72;;;-3.79;100.00
50093;BME280;35974;47.752;10.290;2024-01-30T06:36:20;95163.50;;;-3.64;100.00
50093;BME280;35974;47.752;10.290;2024-01-30T06:38:52;95152.63;;;-3.68;100.00
50093;BME280;35974;47.752;10.290;2024-01-30T06:41:18;95140.41;;;-3.79;100.00
50093;BME280;35974;47.752;10.290;2024-01-30T06:43:45;95149.16;;;-3.67;100.00
50093;BME280;35974;47.752;10.290;2024-01-30T06:46:12;95118.66;;;-3.86;100.00
50093;BME280;35974;47.752;10.290;2024-01-30T06:48:39;95139.13;;;-3.86;100.00
50093;BME280;35974;47.752;10.290;2024-01-30T06:51:07;95157.25;;;-3.75;100.00
50093;BME280;35974;47.752;10.290;2024-01-30T06:53:33;95158.72;;;-3.71;100.00
50093;BME280;35974;47.752;10.290;2024-01-30T06:55:59;95152.47;;;-3.81;100.00
50093;BME280;35974;47.752;10.290;2024-01-30T06:58:26;95159.72;;;-3.73;100.00
50093;BME280;35974;47.752;10.290;2024-01-30T07:00:53;95153.97;;;-3.77;100.00
50093;BME280;35974;47.752;10.290;2024-01-30T07:03:19;95149.50;;;-3.73;100.00
50093;BME280;35974;47.752;10.290;2024-01-30T07:05:46;95160.38;;;-3.70;100.00
50093;BME280;35974;47.752;10.290;2024-01-30T07:08:12;95150.66;;;-3.79;100.00
50093;BME280;35974;47.752;10.290;2024-01-30T07:10:39;95183.28;;;-3.52;100.00
50093;BME280;35974;47.752;10.290;2024-01-30T07:13:05;95153.75;;;-3.74;100.00
50093;BME280;35974;47.752;10.290;2024-01-30T07:15:32;95186.56;;;-3.50;100.00
50093;BME280;35974;47.752;10.290;2024-01-30T07:17:59;95175.06;;;-3.57;100.00
50093;BME280;35974;47.752;10.290;2024-01-30T07:20:32;95169.72;;;-3.54;100.00
50093;BME280;35974;47.752;10.290;2024-01-30T07:22:59;95169.94;;;-3.57;100.00
50093;BME280;35974;47.752;10.290;2024-01-30T07:25:25;95192.66;;;-3.37;100.00
50093;BME280;35974;47.752;10.290;2024-01-30T07:27:53;95172.72;;;-3.46;100.00
50093;BME280;35974;47.752;10.290;2024-01-30T07:30:21;95195.25;;;-3.22;100.00
50093;BME280;35974;47.752;10.290;2024-01-30T07:32:47;95196.06;;;-3.22;100.00
50093;BME280;35974;47.752;10.290;2024-01-30T07:35:14;95196.56;;;-3.15;100.00
50093;BME280;35974;47.752;10.290;2024-01-30T07:37:41;95191.63;;;-3.18;100.00
50093;BME280;35974;47.752;10.290;2024-01-30T07:40:07;95207.75;;;-3.02;100.00
50093;BME280;35974;47.752;10.290;2024-01-30T07:42:34;95189.28;;;-3.07;100.00
50093;BME280;35974;47.752;10.290;2024-01-30T07:45:01;95192.38;;;-3.02;100.00
50093;BME280;35974;47.752;10.290;2024-01-30T07:47:28;95202.47;;;-2.84;100.00
50093;BME280;35974;47.752;10.290;2024-01-30T07:49:55;95195.16;;;-2.90;100.00
50093;BME280;35974;47.752;10.290;2024-01-30T07:52:21;95201.94;;;-2.75;100.00
50093;BME280;35974;47.752;10.290;2024-01-30T07:54:48;95190.78;;;-2.74;100.00
50093;BME280;35974;47.752;10.290;2024-01-30T07:57:15;95217.13;;;-2.58;100.00
50093;BME280;35974;47.752;10.290;2024-01-30T07:59:45;95202.13;;;-2.64;100.00
50093;BME280;35974;47.752;10.290;2024-01-30T08:02:12;95181.97;;;-2.70;100.00
50093;BME280;35974;47.752;10.290;2024-01-30T08:04:39;95208.44;;;-2.41;100.00
50093;BME280;35974;47.752;10.290;2024-01-30T08:07:06;95201.19;;;-2.19;100.00
50093;BME280;35974;47.752;10.290;2024-01-30T08:09:32;95192.94;;;-2.25;100.00
50093;BME280;35974;47.752;10.290;2024-01-30T08:12:00;95193.66;;;-2.08;100.00
50093;BME280;35974;47.752;10.290;2024-01-30T08:14:27;95203.72;;;-2.05;100.00
50093;BME280;35974;47.752;10.290;2024-01-30T08:16:53;95203.56;;;-2.02;100.00
50093;BME280;35974;47.752;10.290;2024-01-30T08:19:20;95182.84;;;-1.99;100.00
50093;BME280;35974;47.752;10.290;2024-01-30T08:21:46;95198.75;;;-1.79;100.00
50093;BME280;35974;47.752;10.290;2024-01-30T08:24:13;95205.88;;;-1.30;100.00
50093;BME280;35974;47.752;10.290;2024-01-30T08:26:39;95210.84;;;-1.27;100.00
50093;BME280;35974;47.752;10.290;2024-01-30T08:29:06;95192.97;;;-1.16;100.00
50093;BME280;35974;47.752;10.290;2024-01-30T08:31:32;95214.63;;;-0.80;100.00
50093;BME280;35974;47.752;10.290;2024-01-30T08:33:59;95203.31;;;-0.90;100.00
50093;BME280;35974;47.752;10.290;2024-01-30T08:36:26;95200.44;;;-0.72;100.00
50093;BME280;35974;47.752;10.290;2024-01-30T08:38:52;95219.88;;;-0.68;100.00
50093;BME280;35974;47.752;10.290;2024-01-30T08:41:25;95221.03;;;-0.47;100.00
50093;BME280;35974;47.752;10.290;2024-01-30T08:43:52;95213.81;;;-0.54;100.00
50093;BME280;35974;47.752;10.290;2024-01-30T08:46:19;95226.16;;;-0.47;100.00
50093;BME280;35974;47.752;10.290;2024-01-30T08:48:46;95193.06;;;-0.51;100.00
50093;BME280;35974;47.752;10.290;2024-01-30T08:51:14;95209.69;;;-0.31;100.00
50093;BME280;35974;47.752;10.290;2024-01-30T08:53:41;95209.22;;;0.13;100.00
50093;BME280;35974;47.752;10.290;2024-01-30T08:56:08;95227.22;;;0.50;100.00
50093;BME280;35974;47.752;10.290;2024-01-30T08:58:34;95206.78;;;0.60;100.00
50093;BME280;35974;47.752;10.290;2024-01-30T09:01:01;95193.19;;;0.58;100.00
50093;BME280;35974;47.752;10.290;2024-01-30T09:03:30;95201.97;;;0.80;100.00
50093;BME280;35974;47.752;10.290;2024-01-30T09:05:56;95183.41;;;0.75;100.00
50093;BME280;35974;47.752;10.290;2024-01-30T09:08:23;95209.72;;;0.91;100.00
50093;BME280;35974;47.752;10.290;2024-01-30T09:10:50;95230.66;;;1.11;100.00
50093;BME280;35974;47.752;10.290;2024-01-30T09:13:16;95216.59;;;1.15;100.00
50093;BME280;35974;47.752;10.290;2024-01-30T09:15:45;95213.78;;;1.18;100.00
50093;BME280;35974;47.752;10.290;2024-01-30T09:18:12;95208.47;;;1.55;100.00
50093;BME280;35974;47.752;10.290;2024-01-30T09:20:39;95207.50;;;1.56;100.00
50093;BME280;35974;47.752;10.290;2024-01-30T09:23:05;95197.94;;;1.69;100.00
50093;BME280;35974;47.752;10.290;2024-01-30T09:25:32;95192.28;;;1.87;100.00
50093;BME280;35974;47.752;10.290;2024-01-30T09:27:59;95207.28;;;2.15;100.00
50093;BME280;35974;47.752;10.290;2024-01-30T09:30:25;95204.69;;;2.27;100.00
50093;BME280;35974;47.752;10.290;2024-01-30T09:32:52;95203.03;;;2.26;100.00
50093;BME280;35974;47.752;10.290;2024-01-30T09:35:18;95210.78;;;2.37;100.00
50093;BME280;35974;47.752;10.290;2024-01-30T09:37:46;95232.59;;;2.55;100.00
50093;BME280;35974;47.752;10.290;2024-01-30T09:40:12;95206.25;;;2.73;100.00
50093;BME280;35974;47.752;10.290;2024-01-30T09:42:40;95177.81;;;2.73;100.00
50093;BME280;35974;47.752;10.290;2024-01-30T09:45:08;95210.22;;;3.30;100.00
50093;BME280;35974;47.752;10.290;2024-01-30T09:47:40;95190.63;;;3.38;100.00
50093;BME280;35974;47.752;10.290;2024-01-30T09:50:11;95202.50;;;3.61;100.00
50093;BME280;35974;47.752;10.290;2024-01-30T09:52:39;95225.09;;;4.21;100.00
50093;BME280;35974;47.752;10.290;2024-01-30T09:55:06;95223.00;;;4.46;100.00
50093;BME280;35974;47.752;10.290;2024-01-30T09:57:36;95221.66;;;4.61;100.00
50093;BME280;35974;47.752;10.290;2024-01-30T10:00:04;95217.28;;;4.52;100.00
50093;BME280;35974;47.752;10.290;2024-01-30T10:02:33;95213.75;;;4.63;100.00
50093;BME280;35974;47.752;10.290;2024-01-30T10:05:00;95232.63;;;4.84;100.00
50093;BME280;35974;47.752;10.290;2024-01-30T10:07:27;95208.84;;;4.89;100.00
50093;BME280;35974;47.752;10.290;2024-01-30T10:09:54;95200.94;;;5.00;100.00
50093;BME280;35974;47.752;10.290;2024-01-30T10:12:23;95230.72;;;5.16;100.00
50093;BME280;35974;47.752;10.290;2024-01-30T10:14:51;95202.44;;;5.12;100.00
50093;BME280;35974;47.752;10.290;2024-01-30T10:17:18;95213.75;;;5.31;100.00
50093;BME280;35974;47.752;10.290;2024-01-30T10:19:59;95212.91;;;5.50;100.00
50093;BME280;35974;47.752;10.290;2024-01-30T10:22:26;95193.56;;;5.25;100.00
50093;BME280;35974;47.752;10.290;2024-01-30T10:24:53;95210.13;;;5.71;100.00
50093;BME280;35974;47.752;10.290;2024-01-30T10:27:25;95191.56;;;5.66;100.00
50093;BME280;35974;47.752;10.290;2024-01-30T10:29:53;95211.56;;;5.56;100.00
50093;BME280;35974;47.752;10.290;2024-01-30T10:32:19;95207.09;;;5.85;100.00
50093;BME280;35974;47.752;10.290;2024-01-30T10:34:46;95168.81;;;5.87;100.00
50093;BME280;35974;47.752;10.290;2024-01-30T10:37:13;95196.44;;;5.89;100.00
50093;BME280;35974;47.752;10.290;2024-01-30T10:39:43;95158.75;;;5.65;100.00
50093;BME280;35974;47.752;10.290;2024-01-30T10:42:15;95172.34;;;6.06;100.00
50093;BME280;35974;47.752;10.290;2024-01-30T10:44:56;95179.22;;;6.43;100.00
50093;BME280;35974;47.752;10.290;2024-01-30T10:47:27;95192.50;;;6.68;100.00
50093;BME280;35974;47.752;10.290;2024-01-30T10:49:55;95201.50;;;6.91;100.00
50093;BME280;35974;47.752;10.290;2024-01-30T10:52:25;95169.69;;;6.80;100.00
50093;BME280;35974;47.752;10.290;2024-01-30T10:54:54;95192.66;;;6.84;100.00
50093;BME280;35974;47.752;10.290;2024-01-30T10:57:26;95180.97;;;7.06;100.00
50093;BME280;35974;47.752;10.290;2024-01-30T11:00:00;95165.88;;;7.10;100.00
50093;BME280;35974;47.752;10.290;2024-01-30T11:02:28;95157.41;;;7.08;100.00
50093;BME280;35974;47.752;10.290;2024-01-30T11:04:58;95178.06;;;7.27;100.00
50093;BME280;35974;47.752;10.290;2024-01-30T11:07:29;95115.69;;;7.44;100.00
50093;BME280;35974;47.752;10.290;2024-01-30T11:10:03;95163.47;;;7.87;100.00
50093;BME280;35974;47.752;10.290;2024-01-30T11:12:31;95173.66;;;8.06;100.00
50093;BME280;35974;47.752;10.290;2024-01-30T11:17:43;95165.84;;;8.06;100.00
50093;BME280;35974;47.752;10.290;2024-01-30T11:20:29;95178.25;;;8.13;100.00
50093;BME280;35974;47.752;10.290;2024-01-30T11:22:58;95156.78;;;8.19;100.00
50093;BME280;35974;47.752;10.290;2024-01-30T11:25:25;95155.94;;;8.18;100.00
50093;BME280;35974;47.752;10.290;2024-01-30T11:27:54;95148.41;;;8.07;100.00
50093;BME280;35974;47.752;10.290;2024-01-30T11:30:31;95175.75;;;8.37;100.00
50093;BME280;35974;47.752;10.290;2024-01-30T11:35:36;95177.69;;;8.35;100.00
50093;BME280;35974;47.752;10.290;2024-01-30T11:38:04;95164.75;;;8.17;100.00
50093;BME280;35974;47.752;10.290;2024-01-30T11:40:32;95176.69;;;8.28;100.00
50093;BME280;35974;47.752;10.290;2024-01-30T11:43:01;95158.91;;;8.23;100.00
50093;BME280;35974;47.752;10.290;2024-01-30T11:45:28;95167.91;;;8.37;100.00
50093;BME280;35974;47.752;10.290;2024-01-30T11:47:55;95177.38;;;8.38;100.00
50093;BME280;35974;47.752;10.290;2024-01-30T11:50:23;95167.91;;;8.29;100.00
50093;BME280;35974;47.752;10.290;2024-01-30T11:52:50;95129.06;;;8.18;100.00
50093;BME280;35974;47.752;10.290;2024-01-30T11:55:16;95140.47;;;8.17;100.00
50093;BME280;35974;47.752;10.290;2024-01-30T11:57:44;95102.94;;;8.01;100.00
50093;BME280;35974;47.752;10.290;2024-01-30T12:00:18;95159.28;;;8.37;100.00
50093;BME280;35974;47.752;10.290;2024-01-30T12:02:52;95132.38;;;8.36;100.00
50093;BME280;35974;47.752;10.290;2024-01-30T12:05:23;95154.63;;;8.14;100.00
50093;BME280;35974;47.752;10.290;2024-01-30T12:07:50;95131.59;;;7.93;100.00
50093;BME280;35974;47.752;10.290;2024-01-30T12:10:18;95122.75;;;7.86;100.00
50093;BME280;35974;47.752;10.290;2024-01-30T12:12:46;95126.09;;;8.04;100.00
50093;BME280;35974;47.752;10.290;2024-01-30T12:15:14;95144.88;;;8.24;100.00
50093;BME280;35974;47.752;10.290;2024-01-30T12:17:41;95141.44;;;8.16;100.00
50093;BME280;35974;47.752;10.290;2024-01-30T12:20:21;95126.00;;;8.22;100.00
50093;BME280;35974;47.752;10.290;2024-01-30T12:22:50;95116.09;;;8.42;100.00
50093;BME280;35974;47.752;10.290;2024-01-30T12:25:18;95091.88;;;8.07;100.00
50093;BME280;35974;47.752;10.290;2024-01-30T12:27:48;95142.50;;;8.39;100.00
50093;BME280;35974;47.752;10.290;2024-01-30T12:30:20;95139.44;;;8.44;100.00
50093;BME280;35974;47.752;10.290;2024-01-30T12:32:50;95124.66;;;8.77;100.00
50093;BME280;35974;47.752;10.290;2024-01-30T12:35:19;95132.66;;;8.92;100.00
50093;BME280;35974;47.752;10.290;2024-01-30T12:37:48;95115.84;;;8.95;100.00
50093;BME280;35974;47.752;10.290;2024-01-30T12:40:14;95114.22;;;9.10;100.00
50093;BME280;35974;47.752;10.290;2024-01-30T12:42:42;95124.66;;;9.27;100.00
50093;BME280;35974;47.752;10.290;2024-01-30T12:45:09;95109.63;;;9.37;100.00
50093;BME280;35974;47.752;10.290;2024-01-30T12:47:36;95106.03;;;9.38;100.00
50093;BME280;35974;47.752;10.290;2024-01-30T12:50:03;95099.88;;;9.31;100.00